createdAt,value
2019-02-05T00:02:16.509Z,101758.95
2019-02-05T00:04:46.514Z,101764.34
2019-02-05T00:07:16.601Z,101763.25
2019-02-05T00:09:46.966Z,101765.98
2019-02-05T00:12:16.991Z,101761.14
2019-02-05T00:14:47.002Z,101770.47
2019-02-05T00:17:17.009Z,101777.80
2019-02-05T00:19:47.008Z,101773.00
2019-02-05T00:22:17.040Z,101778.28
2019-02-05T00:24:47.240Z,101773.80
2019-02-05T00:27:17.259Z,101776.25
2019-02-05T00:29:47.285Z,101783.73
2019-02-05T00:32:17.319Z,101777.58
2019-02-05T00:34:47.317Z,101771.85
2019-02-05T00:37:17.370Z,101783.75
2019-02-05T00:39:47.400Z,101785.81
2019-02-05T00:42:17.420Z,101786.39
2019-02-05T00:44:47.442Z,101795.55
2019-02-05T00:47:17.460Z,101795.43
2019-02-05T00:49:47.478Z,101806.18
2019-02-05T00:52:17.755Z,101808.03
2019-02-05T00:54:47.750Z,101807.34
2019-02-05T00:57:17.740Z,101804.36
2019-02-05T00:59:47.834Z,101800.06
2019-02-05T01:02:17.964Z,101792.94
2019-02-05T01:04:48.062Z,101795.92
2019-02-05T01:07:18.040Z,101804.91
2019-02-05T01:09:48.156Z,101801.56
2019-02-05T01:12:19.904Z,101808.20
2019-02-05T01:14:51.602Z,101807.72
2019-02-05T01:17:21.632Z,101810.21
2019-02-05T01:19:52.006Z,101811.38
2019-02-05T01:22:22.046Z,101808.89
2019-02-05T01:24:52.074Z,101814.03
2019-02-05T01:27:22.140Z,101824.53
2019-02-05T01:29:52.126Z,101821.52
2019-02-05T01:32:22.156Z,101816.53
2019-02-05T01:34:52.237Z,101808.92
2019-02-05T01:37:22.281Z,101809.73
2019-02-05T01:39:52.284Z,101805.42
2019-02-05T01:42:22.322Z,101815.20
2019-02-05T01:44:53.025Z,101811.38
2019-02-05T01:47:23.246Z,101809.89
2019-02-05T01:49:53.260Z,101818.02
2019-02-05T01:52:23.308Z,101802.24
2019-02-05T01:54:53.416Z,101809.89
2019-02-05T01:57:23.523Z,101804.58
2019-02-05T01:59:54.040Z,101804.28
2019-02-05T02:02:24.075Z,101809.08
2019-02-05T02:07:29.863Z,101795.96
2019-02-05T02:10:00.000Z,101788.47
2019-02-05T02:12:30.358Z,101778.81
2019-02-05T02:15:00.368Z,101785.02
2019-02-05T02:17:30.458Z,101776.04
2019-02-05T02:20:00.476Z,101773.06
2019-02-05T02:22:30.556Z,101780.19
2019-02-05T02:25:00.579Z,101781.88
2019-02-05T02:27:30.889Z,101788.15
2019-02-05T02:30:00.905Z,101790.13
2019-02-05T02:32:31.451Z,101787.83
2019-02-05T02:35:01.867Z,101787.02
2019-02-05T02:37:32.041Z,101775.55
2019-02-05T02:40:03.052Z,101776.69
2019-02-05T02:42:33.312Z,101785.30
2019-02-05T02:45:03.316Z,101794.43
2019-02-05T02:47:33.301Z,101805.26
2019-02-05T02:50:03.427Z,101811.05
2019-02-05T02:52:33.416Z,101809.53
2019-02-05T02:55:03.865Z,101805.06
2019-02-05T02:57:33.844Z,101803.73
2019-02-05T03:00:04.786Z,101800.92
2019-02-05T03:02:34.785Z,101809.25
2019-02-05T03:05:07.133Z,101817.34
2019-02-05T03:07:37.254Z,101812.39
2019-02-05T03:10:10.243Z,101813.35
2019-02-05T03:12:40.375Z,101809.20
2019-02-05T03:15:10.576Z,101815.40
2019-02-05T03:17:40.603Z,101828.48
2019-02-05T03:20:11.381Z,101821.84
2019-02-05T03:22:44.986Z,101820.20
2019-02-05T03:25:13.975Z,101828.16
2019-02-05T03:27:44.031Z,101819.67
2019-02-05T03:30:16.697Z,101828.84
2019-02-05T03:32:46.726Z,101829.13
2019-02-05T03:35:16.968Z,101837.44
2019-02-05T03:37:47.024Z,101832.11
2019-02-05T03:40:54.635Z,101838.76
2019-02-05T03:43:24.721Z,101831.80
2019-02-05T03:45:54.697Z,101823.66
2019-02-05T03:48:25.101Z,101823.18
2019-02-05T03:51:00.427Z,101822.17
2019-02-05T03:53:32.524Z,101816.16
2019-02-05T03:56:37.400Z,101822.12
2019-02-05T03:59:23.981Z,101819.34
2019-02-05T04:02:26.438Z,101812.35
2019-02-05T04:05:20.413Z,101815.65
2019-02-05T04:08:19.925Z,101811.01
2019-02-05T04:11:55.621Z,101813.84
2019-02-05T04:15:03.398Z,101814.16
2019-02-05T04:18:17.287Z,101808.72
2019-02-05T04:21:14.401Z,101812.51
2019-02-05T04:23:54.327Z,101815.48
2019-02-05T04:27:08.835Z,101816.96
2019-02-05T04:30:21.810Z,101812.45
2019-02-05T04:33:23.632Z,101811.81
2019-02-05T04:36:43.743Z,101805.86
2019-02-05T04:40:05.518Z,101807.08
2019-02-05T04:43:19.755Z,101804.86
2019-02-05T04:46:03.901Z,101814.04
2019-02-05T04:49:17.803Z,101816.02
2019-02-05T04:52:28.827Z,101817.17
2019-02-05T04:55:27.888Z,101819.95
2019-02-05T04:58:32.869Z,101825.73
2019-02-05T05:01:43.095Z,101833.87
2019-02-05T05:04:44.255Z,101831.21
2019-02-05T05:07:22.335Z,101841.70
2019-02-05T05:09:56.446Z,101833.72
2019-02-05T05:12:28.067Z,101840.35
2019-02-05T05:14:58.269Z,101845.51
2019-02-05T05:17:28.263Z,101839.03
2019-02-05T05:19:58.245Z,101844.19
2019-02-05T05:22:28.343Z,101848.70
2019-02-05T05:24:59.865Z,101847.33
2019-02-05T05:27:29.955Z,101845.35
2019-02-05T05:30:00.348Z,101851.85
2019-02-05T05:32:30.355Z,101858.50
2019-02-05T05:35:00.359Z,101865.66
2019-02-05T05:37:31.964Z,101862.32
2019-02-05T05:40:01.978Z,101855.35
2019-02-05T05:42:31.968Z,101858.02
2019-02-05T05:45:02.481Z,101860.30
2019-02-05T05:47:32.467Z,101869.16
2019-02-05T05:50:03.389Z,101863.84
2019-02-05T05:52:33.445Z,101860.78
2019-02-05T05:55:03.541Z,101870.49
2019-02-05T05:57:33.607Z,101872.80
2019-02-05T06:00:04.093Z,101880.80
2019-02-05T06:02:34.205Z,101887.94
2019-02-05T06:05:06.497Z,101882.62
2019-02-05T06:07:36.495Z,101886.41
2019-02-05T06:10:07.408Z,101887.41
2019-02-05T06:12:37.473Z,101893.89
2019-02-05T06:15:08.885Z,101895.88
2019-02-05T06:17:38.897Z,101894.55
2019-02-05T06:20:11.935Z,101907.19
2019-02-05T06:22:41.938Z,101909.86
2019-02-05T06:25:12.437Z,101911.50
2019-02-05T06:27:42.427Z,101916.49
2019-02-05T06:30:13.787Z,101921.97
2019-02-05T06:32:43.792Z,101919.50
2019-02-05T06:35:14.174Z,101924.49
2019-02-05T06:37:44.699Z,101920.31
2019-02-05T06:40:16.105Z,101926.47
2019-02-05T06:42:46.120Z,101926.80
2019-02-05T06:45:16.160Z,101928.97
2019-02-05T06:47:46.126Z,101932.77
2019-02-05T06:50:16.223Z,101943.39
2019-02-05T06:52:46.272Z,101942.07
2019-02-05T06:55:16.537Z,101932.58
2019-02-05T06:57:46.511Z,101942.73
2019-02-05T07:00:21.192Z,101947.36
2019-02-05T07:02:53.069Z,101952.22
2019-02-05T07:05:23.031Z,101956.70
2019-02-05T07:07:53.419Z,101955.37
2019-02-05T07:10:23.544Z,101956.86
2019-02-05T07:12:53.544Z,101964.99
2019-02-05T07:15:23.582Z,101967.34
2019-02-05T07:17:57.368Z,101967.01
2019-02-05T07:20:27.395Z,101972.31
2019-02-05T07:22:57.784Z,101976.13
2019-02-05T07:25:27.827Z,101964.19
2019-02-05T07:27:57.836Z,101964.83
2019-02-05T07:30:27.981Z,101974.66
2019-02-05T07:32:58.005Z,101979.63
2019-02-05T07:35:27.998Z,101974.66
2019-02-05T07:37:58.621Z,101973.63
2019-02-05T07:40:28.636Z,101973.48
2019-02-05T07:42:58.670Z,101982.29
2019-02-05T07:45:28.667Z,101982.94
2019-02-05T07:47:58.737Z,101984.27
2019-02-05T07:50:28.921Z,101990.44
2019-02-05T07:52:58.994Z,101993.09
2019-02-05T07:55:29.345Z,101997.56
2019-02-05T07:57:59.413Z,102002.38
2019-02-05T08:00:29.567Z,102002.05
2019-02-05T08:02:59.681Z,101997.41
2019-02-05T08:05:31.440Z,102008.21
2019-02-05T08:08:01.704Z,102009.34
2019-02-05T08:10:31.862Z,102004.89
2019-02-05T08:13:04.030Z,102012.19
2019-02-05T08:15:34.405Z,102013.86
2019-02-05T08:18:04.946Z,102016.83
2019-02-05T08:20:34.946Z,102019.33
2019-02-05T08:23:06.231Z,102012.02
2019-02-05T08:25:36.235Z,102015.67
2019-02-05T08:28:06.635Z,102014.20
2019-02-05T08:30:39.707Z,102014.37
2019-02-05T08:33:09.905Z,102015.50
2019-02-05T08:35:39.917Z,102026.16
2019-02-05T08:38:10.034Z,102019.17
2019-02-05T08:40:40.055Z,102022.48
2019-02-05T08:43:10.042Z,102024.49
2019-02-05T08:45:40.605Z,102021.67
2019-02-05T08:48:11.679Z,102027.65
2019-02-05T08:50:42.059Z,102020.51
2019-02-05T08:53:12.070Z,102030.77
2019-02-05T08:55:42.092Z,102025.15
2019-02-05T08:58:12.736Z,102035.11
2019-02-05T09:00:42.954Z,102041.11
2019-02-05T09:03:13.048Z,102037.78
2019-02-05T09:05:43.061Z,102041.08
2019-02-05T09:08:13.084Z,102035.59
2019-02-05T09:10:43.103Z,102037.45
2019-02-05T09:13:13.483Z,102038.09
2019-02-05T09:15:43.460Z,102043.09
2019-02-05T09:18:13.639Z,102033.78
2019-02-05T09:20:43.688Z,102040.41
2019-02-05T09:23:14.456Z,102035.11
2019-02-05T09:25:44.584Z,102037.78
2019-02-05T09:28:15.808Z,102036.09
2019-02-05T09:30:45.815Z,102039.55
2019-02-05T09:33:15.927Z,102040.72
2019-02-05T09:35:46.099Z,102047.22
2019-02-05T09:38:16.157Z,102045.59
2019-02-05T09:40:46.282Z,102044.72
2019-02-05T09:43:16.699Z,102043.91
2019-02-05T09:45:46.733Z,102055.36
2019-02-05T09:48:16.802Z,102059.19
2019-02-05T09:50:46.811Z,102050.40
2019-02-05T09:53:16.920Z,102052.73
2019-02-05T09:55:46.980Z,102053.06
2019-02-05T09:58:17.304Z,102059.39
2019-02-05T10:00:47.319Z,102068.02
2019-02-05T10:03:17.386Z,102066.85
2019-02-05T10:05:47.431Z,102075.19
2019-02-05T10:08:17.456Z,102080.02
2019-02-05T10:10:47.494Z,102080.67
2019-02-05T10:13:17.509Z,102080.16
2019-02-05T10:15:47.609Z,102082.33
2019-02-05T10:18:17.672Z,102086.13
2019-02-05T10:20:47.756Z,102079.67
2019-02-05T10:23:17.861Z,102083.50
2019-02-05T10:25:47.930Z,102090.48
2019-02-05T10:28:17.951Z,102094.15
2019-02-05T10:30:48.170Z,102086.48
2019-02-05T10:33:18.176Z,102090.29
2019-02-05T10:35:48.234Z,102094.28
2019-02-05T10:38:18.316Z,102093.95
2019-02-05T10:40:48.415Z,102093.95
2019-02-05T10:43:18.476Z,102098.92
2019-02-05T10:45:48.672Z,102100.09
2019-02-05T10:48:18.723Z,102103.88
2019-02-05T10:50:48.732Z,102103.23
2019-02-05T10:53:18.784Z,102108.41
2019-02-05T10:55:48.806Z,102100.94
2019-02-05T10:58:18.842Z,102100.41
2019-02-05T11:00:49.242Z,102106.06
2019-02-05T11:03:19.292Z,102106.58
2019-02-05T11:05:49.312Z,102109.05
2019-02-05T11:08:19.358Z,102099.44
2019-02-05T11:10:49.358Z,102100.58
2019-02-05T11:13:19.406Z,102105.73
2019-02-05T11:15:49.799Z,102096.42
2019-02-05T11:18:19.844Z,102097.43
2019-02-05T11:20:49.917Z,102103.92
2019-02-05T11:23:20.006Z,102103.59
2019-02-05T11:25:50.010Z,102097.42
2019-02-05T11:28:20.076Z,102109.25
2019-02-05T11:30:50.098Z,102104.73
2019-02-05T11:33:20.332Z,102101.22
2019-02-05T11:35:50.752Z,102095.89
2019-02-05T11:38:21.396Z,102101.90
2019-02-05T11:40:51.547Z,102112.51
2019-02-05T11:43:21.622Z,102111.70
2019-02-05T11:45:51.654Z,102109.25
2019-02-05T11:48:21.861Z,102105.22
2019-02-05T11:50:51.944Z,102102.70
2019-02-05T11:53:22.228Z,102110.50
2019-02-05T11:55:52.263Z,102114.20
2019-02-05T11:58:22.306Z,102110.38
2019-02-05T12:01:09.504Z,102109.36
2019-02-05T12:03:39.553Z,102108.34
2019-02-05T12:06:09.690Z,102113.36
2019-02-05T12:08:39.743Z,102109.89
2019-02-05T12:11:09.747Z,102112.23
2019-02-05T12:13:39.767Z,102112.23
2019-02-05T12:16:09.759Z,102113.56
2019-02-05T12:18:39.905Z,102110.20
2019-02-05T12:21:09.913Z,102109.03
2019-02-05T12:23:39.943Z,102106.66
2019-02-05T12:26:09.947Z,102107.87
2019-02-05T12:28:39.957Z,102104.87
2019-02-05T12:31:10.467Z,102104.69
2019-02-05T12:33:40.454Z,102106.00
2019-02-05T12:36:10.493Z,102102.85
2019-02-05T12:38:40.547Z,102100.17
2019-02-05T12:41:10.562Z,102096.50
2019-02-05T12:43:40.552Z,102107.50
2019-02-05T12:46:10.973Z,102108.83
2019-02-05T12:48:40.993Z,102099.47
2019-02-05T12:51:11.095Z,102105.84
2019-02-05T12:53:41.163Z,102097.87
2019-02-05T12:56:11.353Z,102098.03
2019-02-05T12:58:41.519Z,102101.69
2019-02-05T13:01:11.831Z,102100.49
2019-02-05T13:03:41.921Z,102106.66
2019-02-05T13:06:12.077Z,102100.16
2019-02-05T13:08:42.103Z,102103.84
2019-02-05T13:11:12.129Z,102103.19
2019-02-05T13:13:42.219Z,102105.85
2019-02-05T13:16:12.269Z,102102.53
2019-02-05T13:18:42.334Z,102115.69
2019-02-05T13:21:12.387Z,102115.16
2019-02-05T13:23:42.452Z,102111.01
2019-02-05T13:26:12.714Z,102112.02
2019-02-05T13:28:43.182Z,102120.38
2019-02-05T13:31:13.244Z,102115.17
2019-02-05T13:33:43.947Z,102112.99
2019-02-05T13:36:14.143Z,102114.83
2019-02-05T13:38:44.171Z,102108.02
2019-02-05T13:41:14.395Z,102118.50
2019-02-05T13:43:44.505Z,102118.17
2019-02-05T13:46:14.559Z,102110.34
2019-02-05T13:48:44.651Z,102112.48
2019-02-05T13:51:14.781Z,102114.83
2019-02-05T13:53:44.865Z,102117.23
2019-02-05T13:56:15.186Z,102120.92
2019-02-05T13:58:45.219Z,102127.91
2019-02-05T14:01:20.126Z,102124.38
2019-02-05T14:03:47.101Z,102130.86
2019-02-05T14:06:17.159Z,102128.77
2019-02-05T14:08:47.174Z,102133.80
2019-02-05T14:11:17.239Z,102128.63
2019-02-05T14:13:47.259Z,102134.09
2019-02-05T14:16:17.361Z,102138.10
2019-02-05T14:18:54.853Z,102134.39
2019-02-05T14:21:19.091Z,102141.44
2019-02-05T14:23:49.073Z,102137.47
2019-02-05T14:26:19.331Z,102148.44
2019-02-05T14:28:49.343Z,102140.93
2019-02-05T14:31:29.979Z,102140.97
2019-02-05T14:33:51.060Z,102140.75
2019-02-05T14:36:21.101Z,102143.91
2019-02-05T14:38:51.445Z,102143.27
2019-02-05T14:41:21.495Z,102144.45
2019-02-05T14:43:51.507Z,102148.59
2019-02-05T14:46:21.609Z,102143.73
2019-02-05T14:48:51.689Z,102140.11
2019-02-05T14:51:21.703Z,102144.37
2019-02-05T14:53:51.753Z,102141.06
2019-02-05T14:56:21.755Z,102140.91
2019-02-05T14:58:51.859Z,102148.10
2019-02-05T15:01:21.867Z,102149.67
2019-02-05T15:03:51.893Z,102144.90
2019-02-05T15:06:22.196Z,102147.50
2019-02-05T15:08:52.219Z,102148.66
2019-02-05T15:11:22.249Z,102147.33
2019-02-05T15:13:52.344Z,102145.52
2019-02-05T15:16:22.447Z,102141.31
2019-02-05T15:18:52.554Z,102138.65
2019-02-05T15:21:22.593Z,102134.73
2019-02-05T15:23:52.649Z,102138.65
2019-02-05T15:26:22.673Z,102137.08
2019-02-05T15:29:02.037Z,102133.06
2019-02-05T15:31:32.094Z,102136.93
2019-02-05T15:34:04.920Z,102140.04
2019-02-05T15:36:37.088Z,102133.61
2019-02-05T15:39:13.535Z,102134.08
2019-02-05T15:41:43.677Z,102132.50
2019-02-05T15:44:14.073Z,102138.64
2019-02-05T15:46:44.147Z,102134.80
2019-02-05T15:49:14.189Z,102141.30
2019-02-05T15:51:44.260Z,102139.58
2019-02-05T15:54:14.280Z,102144.11
2019-02-05T15:56:44.354Z,102145.28
2019-02-05T15:59:14.383Z,102150.62
2019-02-05T16:01:44.443Z,102151.48
2019-02-05T16:04:14.527Z,102145.47
2019-02-05T16:06:44.544Z,102150.62
2019-02-05T16:09:14.874Z,102145.94
2019-02-05T16:11:45.334Z,102144.99
2019-02-05T16:14:15.551Z,102148.13
2019-02-05T16:16:45.690Z,102147.13
2019-02-05T16:19:15.765Z,102146.15
2019-02-05T16:21:45.826Z,102147.81
2019-02-05T16:24:15.879Z,102157.62
2019-02-05T16:26:46.277Z,102154.64
2019-02-05T16:29:16.344Z,102152.45
2019-02-05T16:31:46.371Z,102157.80
2019-02-05T16:34:16.431Z,102158.80
2019-02-05T16:36:48.558Z,102164.64
2019-02-05T16:39:18.238Z,102162.79
2019-02-05T16:41:48.436Z,102160.33
2019-02-05T16:44:18.498Z,102165.45
2019-02-05T16:46:48.512Z,102159.80
2019-02-05T16:49:18.621Z,102164.16
2019-02-05T16:51:48.729Z,102173.48
2019-02-05T16:54:18.765Z,102178.61
2019-02-05T16:56:48.793Z,102182.28
2019-02-05T16:59:18.832Z,102184.78
2019-02-05T17:01:48.950Z,102183.09
2019-02-05T17:04:18.976Z,102192.25
2019-02-05T17:06:49.015Z,102201.09
2019-02-05T17:09:19.453Z,102201.25
2019-02-05T17:11:49.491Z,102199.27
2019-02-05T17:14:19.508Z,102203.77
2019-02-05T17:16:49.583Z,102204.09
2019-02-05T17:19:19.626Z,102201.09
2019-02-05T17:21:49.694Z,102208.42
2019-02-05T17:24:19.950Z,102212.06
2019-02-05T17:26:50.066Z,102213.72
2019-02-05T17:29:20.340Z,102214.08
2019-02-05T17:31:50.438Z,102211.41
2019-02-05T17:34:20.518Z,102218.38
2019-02-05T17:36:51.284Z,102221.39
2019-02-05T17:39:21.361Z,102219.39
2019-02-05T17:41:51.397Z,102217.55
2019-02-05T17:44:21.432Z,102219.41
2019-02-05T17:46:51.458Z,102211.90
2019-02-05T17:49:21.623Z,102223.55
2019-02-05T17:51:51.980Z,102218.08
2019-02-05T17:54:22.028Z,102223.89
2019-02-05T17:56:52.058Z,102228.22
2019-02-05T17:59:22.101Z,102229.70
2019-02-05T18:01:52.130Z,102228.22
2019-02-05T18:04:22.186Z,102238.05
2019-02-05T18:06:52.214Z,102236.72
2019-02-05T18:09:22.280Z,102236.53
2019-02-05T18:11:52.320Z,102242.19
2019-02-05T18:14:22.709Z,102244.38
2019-02-05T18:16:52.841Z,102241.88
2019-02-05T18:19:22.913Z,102236.37
2019-02-05T18:21:53.054Z,102232.73
2019-02-05T18:24:23.177Z,102229.56
2019-02-05T18:26:53.362Z,102231.39
2019-02-05T18:29:23.400Z,102234.88
2019-02-05T18:31:53.466Z,102239.03
2019-02-05T18:34:23.884Z,102236.05
2019-02-05T18:36:54.786Z,102237.20
2019-02-05T18:39:24.806Z,102236.04
2019-02-05T18:41:54.859Z,102241.21
2019-02-05T18:44:24.905Z,102242.02
2019-02-05T18:46:55.059Z,102242.70
2019-02-05T18:49:25.209Z,102241.03
2019-02-05T18:51:55.345Z,102244.69
2019-02-05T18:54:25.410Z,102238.53
2019-02-05T18:57:08.305Z,102241.02
2019-02-05T18:59:33.580Z,102245.70
2019-02-05T19:02:03.652Z,102245.19
2019-02-05T19:04:33.745Z,102248.02
2019-02-05T19:07:05.562Z,102245.37
2019-02-05T19:09:35.619Z,102235.05
2019-02-05T19:12:05.713Z,102242.17
2019-02-05T19:14:36.139Z,102237.37
2019-02-05T19:17:06.195Z,102237.86
2019-02-05T19:19:36.305Z,102241.52
2019-02-05T19:22:06.375Z,102237.34
2019-02-05T19:24:51.939Z,102238.05
2019-02-05T19:27:22.094Z,102240.36
2019-02-05T19:29:52.182Z,102235.38
2019-02-05T19:32:26.358Z,102230.86
2019-02-05T19:34:56.434Z,102239.68
2019-02-05T19:37:26.556Z,102224.88
2019-02-05T19:39:56.912Z,102234.50
2019-02-05T19:42:26.958Z,102231.52
2019-02-05T19:45:04.357Z,102230.70
2019-02-05T19:47:34.886Z,102233.66
2019-02-05T19:50:06.159Z,102227.03
2019-02-05T19:52:36.323Z,102222.89
2019-02-05T19:55:06.485Z,102226.06
2019-02-05T19:57:36.531Z,102230.39
2019-02-05T20:00:07.353Z,102238.51
2019-02-05T20:02:37.365Z,102231.50
2019-02-05T20:05:08.065Z,102231.17
2019-02-05T20:07:38.118Z,102235.31
2019-02-05T20:10:09.226Z,102232.98
2019-02-05T20:12:39.241Z,102234.52
2019-02-05T20:15:10.155Z,102235.50
2019-02-05T20:17:40.729Z,102240.34
2019-02-05T20:20:13.583Z,102244.95
2019-02-05T20:22:43.746Z,102244.45
2019-02-05T20:25:14.587Z,102250.63
2019-02-05T20:27:44.717Z,102241.91
2019-02-05T20:30:16.177Z,102246.58
2019-02-05T20:32:46.202Z,102247.75
2019-02-05T20:35:16.303Z,102250.77
2019-02-05T20:37:46.330Z,102256.59
2019-02-05T20:40:17.375Z,102253.30
2019-02-05T20:42:47.429Z,102257.06
2019-02-05T20:45:17.521Z,102257.63
2019-02-05T20:47:47.596Z,102253.77
2019-02-05T20:50:17.690Z,102259.77
2019-02-05T20:55:39.352Z,102256.06
2019-02-05T20:58:09.401Z,102262.16
2019-02-05T21:00:39.503Z,102265.02
2019-02-05T21:03:09.586Z,102257.53
2019-02-05T21:05:40.555Z,102257.52
2019-02-05T21:08:10.617Z,102249.38
2019-02-05T21:10:40.745Z,102253.55
2019-02-05T21:13:10.794Z,102260.81
2019-02-05T21:15:40.897Z,102254.59
2019-02-05T21:18:11.003Z,102256.27
2019-02-05T21:20:41.294Z,102254.50
2019-02-05T21:23:11.325Z,102264.36
2019-02-05T21:25:50.971Z,102263.06
2019-02-05T21:28:21.008Z,102267.75
2019-02-05T21:30:51.030Z,102270.89
2019-02-05T21:33:21.531Z,102263.92
2019-02-05T21:35:51.561Z,102265.80
2019-02-05T21:38:21.594Z,102270.16
2019-02-05T21:40:51.612Z,102271.47
2019-02-05T21:43:21.639Z,102270.39
2019-02-05T21:45:51.636Z,102262.03
2019-02-05T21:48:22.189Z,102272.98
2019-02-05T21:50:52.208Z,102270.56
2019-02-05T21:53:22.262Z,102274.37
2019-02-05T21:55:52.242Z,102275.06
2019-02-05T21:58:22.356Z,102275.68
2019-02-05T22:00:52.514Z,102280.87
2019-02-05T22:03:23.065Z,102279.21
2019-02-05T22:05:53.113Z,102280.64
2019-02-05T22:08:23.241Z,102285.58
2019-02-05T22:10:53.318Z,102279.56
2019-02-05T22:13:23.342Z,102281.55
2019-02-05T22:15:53.380Z,102270.65
2019-02-05T22:18:23.624Z,102271.62
2019-02-05T22:20:53.679Z,102273.28
2019-02-05T22:23:23.954Z,102272.84
2019-02-05T22:25:54.008Z,102270.17
2019-02-05T22:28:24.014Z,102270.67
2019-02-05T22:30:54.602Z,102262.70
2019-02-05T22:33:24.592Z,102266.00
2019-02-05T22:35:56.145Z,102266.30
2019-02-05T22:38:26.128Z,102266.52
2019-02-05T22:40:56.437Z,102271.11
2019-02-05T22:43:26.428Z,102270.02
2019-02-05T22:45:56.474Z,102273.95
2019-02-05T22:48:26.681Z,102271.29
2019-02-05T22:50:56.756Z,102266.81
2019-02-05T22:53:27.168Z,102268.27
2019-02-05T22:55:57.193Z,102268.78
2019-02-05T22:58:27.300Z,102266.77
2019-02-05T23:01:24.290Z,102272.41
2019-02-05T23:04:14.346Z,102268.91
2019-02-05T23:07:02.696Z,102267.03
2019-02-05T23:10:16.162Z,102261.34
2019-02-05T23:12:58.435Z,102263.59
2019-02-05T23:15:29.237Z,102265.95
2019-02-05T23:17:59.369Z,102262.38
2019-02-05T23:20:29.698Z,102256.43
2019-02-05T23:23:01.729Z,102256.73
2019-02-05T23:25:31.906Z,102261.59
2019-02-05T23:28:06.114Z,102252.31
2019-02-05T23:30:36.130Z,102252.38
2019-02-05T23:33:06.142Z,102246.47
2019-02-05T23:35:36.116Z,102250.98
2019-02-05T23:38:06.126Z,102251.16
2019-02-05T23:40:36.173Z,102254.70
2019-02-05T23:43:06.555Z,102254.47
2019-02-05T23:45:36.537Z,102255.50
2019-02-05T23:48:07.118Z,102254.26
2019-02-05T23:50:37.086Z,102252.36
2019-02-05T23:53:07.179Z,102259.88
2019-02-05T23:55:37.238Z,102255.33
2019-02-05T23:58:07.201Z,102260.02
